createdAt,value
2022-09-15T00:02:22.863Z,30.5
2022-09-15T00:07:59.889Z,30.5
2022-09-15T00:13:22.088Z,30.5
2022-09-15T00:19:02.527Z,30.4
2022-09-15T00:24:39.081Z,30.4
2022-09-15T00:30:15.795Z,30.4
2022-09-15T00:35:54.317Z,30.4
2022-09-15T00:41:31.658Z,30.4
2022-09-15T00:47:31.817Z,30.3
2022-09-15T00:53:10.426Z,30.3
2022-09-15T00:58:31.620Z,30.3
2022-09-15T01:04:08.317Z,30.3
2022-09-15T01:09:31.696Z,30.3
2022-09-15T01:15:08.272Z,30.3
2022-09-15T01:25:40.597Z,30.2
2022-09-15T01:31:45.264Z,30.2
2022-09-15T01:37:21.435Z,30.2
2022-09-15T01:42:59.755Z,30.2
2022-09-15T01:48:21.385Z,30.1
2022-09-15T01:53:57.871Z,30.1
2022-09-15T01:59:35.398Z,30.1
2022-09-15T02:05:12.496Z,30.1
2022-09-15T02:10:34.021Z,30.1
2022-09-15T02:20:47.157Z,30
2022-09-15T02:26:24.085Z,30
2022-09-15T02:32:06.322Z,30.1
2022-09-15T02:37:43.535Z,30.1
2022-09-15T02:43:20.896Z,30
2022-09-15T02:48:59.565Z,30
2022-09-15T02:54:36.978Z,29.9
2022-09-15T03:00:14.269Z,29.9
2022-09-15T03:11:16.299Z,29.8
2022-09-15T03:16:38.444Z,29.8
2022-09-15T03:22:16.043Z,29.8
2022-09-15T03:27:53.834Z,29.8
2022-09-15T03:33:31.427Z,29.7
2022-09-15T03:39:11.932Z,29.7
2022-09-15T03:44:53.329Z,29.6
2022-09-15T03:50:30.817Z,29.6
2022-09-15T03:56:08.394Z,29.6
2022-09-15T04:01:30.875Z,29.6
2022-09-15T04:07:13.150Z,29.6
2022-09-15T04:12:50.716Z,29.5
2022-09-15T04:18:33.118Z,29.5
2022-09-15T04:24:13.471Z,29.5
2022-09-15T04:29:54.073Z,29.4
2022-09-15T04:35:31.131Z,29.4
2022-09-15T04:41:08.271Z,29.4
2022-09-15T04:46:46.166Z,29.3
2022-09-15T04:52:26.227Z,29.3
2022-09-15T04:58:02.321Z,29.2
2022-09-15T05:03:41.301Z,29.2
2022-09-15T05:09:23.024Z,29.1
2022-09-15T05:14:59.823Z,29.2
2022-09-15T05:20:38.530Z,29.2
2022-09-15T05:26:21.652Z,29.1
2022-09-15T05:31:59.570Z,29.1
2022-09-15T05:37:37.802Z,29.1
2022-09-15T05:43:16.035Z,29.1
2022-09-15T05:48:53.111Z,29.1
2022-09-15T05:54:31.238Z,29.1
2022-09-15T06:00:08.410Z,29.1
2022-09-15T06:05:45.547Z,33.9
2022-09-15T06:11:27.066Z,31
2022-09-15T06:17:05.118Z,31.8
2022-09-15T06:22:41.902Z,32.8
2022-09-15T06:28:21.397Z,33.9
2022-09-15T06:33:58.874Z,34.9
2022-09-15T06:39:35.780Z,35.8
2022-09-15T06:45:40.030Z,36
2022-09-15T06:51:36.715Z,36.6
2022-09-15T06:57:13.706Z,37.6
2022-09-15T07:02:55.140Z,38.6
2022-09-15T07:08:33.795Z,39.5
2022-09-15T07:14:15.521Z,40.4
2022-09-15T07:19:54.100Z,41.4
2022-09-15T07:25:32.120Z,42.3
2022-09-15T07:31:13.535Z,42.9
2022-09-15T07:36:54.003Z,42.6
2022-09-15T07:42:35.372Z,43.5
2022-09-15T07:48:13.502Z,44.2
2022-09-15T07:53:51.708Z,45.2
2022-09-15T07:59:13.943Z,45.8
2022-09-15T08:04:52.509Z,46.4
2022-09-15T08:10:39.545Z,47.3
2022-09-15T08:16:21.652Z,48.4
2022-09-15T08:32:28.947Z,50.3
2022-09-15T08:38:06.056Z,51.2
2022-09-15T08:43:50.078Z,52.1
2022-09-15T08:49:51.802Z,52.9
2022-09-15T08:55:29.036Z,53.4
2022-09-15T09:01:09.653Z,54
2022-09-15T09:06:48.014Z,54.3
2022-09-15T09:11:54.778Z,55.1
2022-09-15T09:17:33.576Z,56.1
2022-09-15T09:23:12.904Z,56.2
2022-09-15T09:28:57.178Z,55.4
2022-09-15T09:34:21.113Z,56.1
2022-09-15T09:39:59.317Z,56.8
2022-09-15T09:45:37.078Z,56.8
2022-09-15T09:51:16.323Z,57.9
2022-09-15T09:56:53.960Z,57.9
2022-09-15T10:02:31.587Z,56.6
2022-09-15T10:08:10.604Z,58.2
2022-09-15T10:13:48.571Z,58
2022-09-15T10:19:27.403Z,59.3
2022-09-15T10:30:16.480Z,61.1
2022-09-15T10:35:54.926Z,61.1
2022-09-15T10:41:33.875Z,61.9
2022-09-15T10:47:12.601Z,62.6
2022-09-15T10:52:49.922Z,61.6
2022-09-15T10:58:51.656Z,60.4
2022-09-15T11:04:30.237Z,58.6
2022-09-15T11:10:09.514Z,56.8
2022-09-15T11:15:53.327Z,55.8
2022-09-15T11:21:31.910Z,55.5
2022-09-15T11:27:09.740Z,56.1
2022-09-15T11:32:48.428Z,57.4
2022-09-15T11:38:29.653Z,60.6
2022-09-15T11:44:08.050Z,60.8
2022-09-15T11:49:45.953Z,61.9
2022-09-15T11:55:23.325Z,62.3
2022-09-15T12:01:06.500Z,62.2
2022-09-15T12:06:29.363Z,62.5
2022-09-15T12:12:07.482Z,61.6
2022-09-15T12:17:50.763Z,62.3
2022-09-15T12:23:55.429Z,62.5
2022-09-15T12:29:34.259Z,62.6
2022-09-15T12:35:13.892Z,62.5
2022-09-15T12:40:37.261Z,62.7
2022-09-15T12:46:15.368Z,62.4
2022-09-15T12:51:52.963Z,62.3
2022-09-15T12:57:32.383Z,62.3
2022-09-15T13:03:36.687Z,62.3
2022-09-15T13:09:19.728Z,62.3
2022-09-15T13:14:57.895Z,61.9
2022-09-15T13:20:36.453Z,61.6
2022-09-15T13:26:13.443Z,61.4
2022-09-15T13:31:55.726Z,61.3
2022-09-15T13:40:23.530Z,60.3
2022-09-15T13:46:05.797Z,60.4
2022-09-15T13:51:43.957Z,60.6
2022-09-15T13:58:53.961Z,60.3
2022-09-15T14:04:45.932Z,58.4
2022-09-15T14:10:29.265Z,57.3
2022-09-15T14:16:10.441Z,56.6
2022-09-15T14:21:52.859Z,55.8
2022-09-15T14:27:33.289Z,55.8
2022-09-15T14:33:14.570Z,55.6
2022-09-15T14:39:00.368Z,55.4
